Time;durP1;ratioP1;P1;durP2;ratioP2;P2;SDS_P1;SDS_P2;PMS_P1;PMS_P2;Temp;Humidity;BMP_temperature;BMP_pressure;BME280_temperature;BME280_humidity;BME280_pressure;Samples;Min_cycle;Max_cycle;Signal;HPM_P1;HPM_P2
2022/03/09 00:00:24;;;;;;;;;;;0.20;75.30;;;;;;5063972;28;19912;-75
2022/03/09 00:02:50;;;;;;;;;;;0.20;75.70;;;;;;5064136;28;20107;-75
2022/03/09 00:05:15;;;;;;;;;;;0.20;76.10;;;;;;5064768;28;19939;-75
2022/03/09 00:07:41;;;;;;;;;;;0.20;75.80;;;;;;5046733;28;19979;-75
2022/03/09 00:10:07;;;;;;;;;;;0.30;76.20;;;;;;5046456;28;20462;-75
2022/03/09 00:12:33;;;;;;;;;;;0.20;75.70;;;;;;5045643;28;19943;-76
2022/03/09 00:14:59;;;;;;;;;;;0.20;75.80;;;;;;5046039;28;19955;-74
2022/03/09 00:17:24;;;;;;;;;;;0.20;76.10;;;;;;5045745;28;20230;-73
2022/03/09 00:19:50;;;;;;;;;;;0.10;75.80;;;;;;5061902;28;19916;-73
2022/03/09 00:22:16;;;;;;;;;;;0.20;76.50;;;;;;5045134;28;19931;-73
2022/03/09 00:24:42;;;;;;;;;;;0.10;75.60;;;;;;5062960;28;19987;-73
2022/03/09 00:27:08;;;;;;;;;;;0.10;75.50;;;;;;5045425;28;19916;-73
2022/03/09 00:29:33;;;;;;;;;;;0.20;75.40;;;;;;5063078;28;19962;-73
2022/03/09 00:31:59;;;;;;;;;;;0.10;75.50;;;;;;5012016;28;19913;-73
2022/03/09 00:34:25;;;;;;;;;;;0.10;75.20;;;;;;5062487;28;19920;-73
2022/03/09 00:36:50;;;;;;;;;;;0.00;75.40;;;;;;5062703;28;19912;-73
2022/03/09 00:39:16;;;;;;;;;;;0.00;76.30;;;;;;5062817;28;19909;-73
2022/03/09 00:41:42;;;;;;;;;;;0.10;75.80;;;;;;5062579;28;19982;-73
2022/03/09 00:44:08;;;;;;;;;;;0.00;75.70;;;;;;5044964;28;19917;-73
2022/03/09 00:46:34;;;;;;;;;;;0.00;76.10;;;;;;5062684;28;19916;-72
2022/03/09 00:49:01;;;;;;;;;;;0.00;76.20;;;;;;5062819;28;20103;-74
2022/03/09 00:51:26;;;;;;;;;;;-0.10;76.50;;;;;;5062338;28;19916;-74
2022/03/09 00:53:52;;;;;;;;;;;-0.20;77.00;;;;;;5044731;28;19921;-74
2022/03/09 00:56:18;;;;;;;;;;;-0.30;77.10;;;;;;5061803;28;20211;-73
2022/03/09 00:58:44;;;;;;;;;;;-0.40;77.50;;;;;;5044960;28;19909;-73
2022/03/09 01:01:10;;;;;;;;;;;-0.40;77.80;;;;;;5062276;28;20199;-74
2022/03/09 01:03:36;;;;;;;;;;;-0.40;78.20;;;;;;5044547;28;20154;-73
2022/03/09 01:06:02;;;;;;;;;;;-0.40;78.00;;;;;;5062448;28;19909;-73
2022/03/09 01:08:28;;;;;;;;;;;-0.40;78.00;;;;;;5044800;28;19917;-73
2022/03/09 01:10:53;;;;;;;;;;;-0.50;78.30;;;;;;5062324;28;19931;-73
2022/03/09 01:13:19;;;;;;;;;;;-0.50;78.70;;;;;;5044890;28;19912;-75
2022/03/09 01:15:45;;;;;;;;;;;-0.60;79.20;;;;;;5062443;28;19909;-75
2022/03/09 01:18:10;;;;;;;;;;;-0.60;78.90;;;;;;5044749;28;19912;-75
2022/03/09 01:20:36;;;;;;;;;;;-0.70;79.80;;;;;;5044081;28;20104;-75
2022/03/09 01:23:02;;;;;;;;;;;-0.70;79.20;;;;;;5062094;28;19967;-75
2022/03/09 01:25:27;;;;;;;;;;;-0.70;79.50;;;;;;5062237;28;19917;-75
2022/03/09 01:27:53;;;;;;;;;;;-0.80;80.00;;;;;;5044590;28;19908;-75
2022/03/09 01:30:19;;;;;;;;;;;-0.80;80.10;;;;;;5062125;28;20116;-75
2022/03/09 01:32:45;;;;;;;;;;;-0.70;80.20;;;;;;5044258;28;20275;-75
2022/03/09 01:35:10;;;;;;;;;;;-0.80;80.30;;;;;;5061898;28;19913;-75
2022/03/09 01:37:36;;;;;;;;;;;-0.80;80.60;;;;;;5044429;28;20115;-75
2022/03/09 01:40:02;;;;;;;;;;;-0.80;80.40;;;;;;5062166;28;19915;-75
2022/03/09 01:42:28;;;;;;;;;;;-0.90;80.60;;;;;;5044101;28;19952;-75
2022/03/09 01:44:54;;;;;;;;;;;-0.90;80.70;;;;;;5044373;28;20231;-75
2022/03/09 01:47:20;;;;;;;;;;;-0.90;80.80;;;;;;5027753;28;19909;-75
2022/03/09 01:49:46;;;;;;;;;;;-0.90;81.30;;;;;;5043850;28;19909;-75
2022/03/09 01:52:11;;;;;;;;;;;-0.90;81.00;;;;;;5043941;28;20103;-76
2022/03/09 01:54:39;;;;;;;;;;;-0.90;81.20;;;;;;5044128;28;19956;-75
2022/03/09 01:57:05;;;;;;;;;;;-0.90;81.20;;;;;;5044171;28;19916;-74
2022/03/09 01:59:30;;;;;;;;;;;-0.90;80.80;;;;;;5061908;28;19909;-75
2022/03/09 02:01:56;;;;;;;;;;;-0.80;80.60;;;;;;5027311;28;19909;-76
2022/03/09 02:04:22;;;;;;;;;;;-0.90;80.70;;;;;;5027216;28;19974;-75
2022/03/09 02:06:47;;;;;;;;;;;-1.00;81.30;;;;;;5027668;28;19916;-74
2022/03/09 02:11:57;;;;;;;;;;;-1.00;82.20;;;;;;5050207;28;20461;-73
2022/03/09 02:14:36;;;;;;;;;;;-1.10;82.50;;;;;;5031008;28;19913;-73
2022/03/09 02:17:05;;;;;;;;;;;-1.00;82.40;;;;;;5031650;28;19908;-74
2022/03/09 02:19:31;;;;;;;;;;;-1.00;82.30;;;;;;5063870;28;19915;-74
2022/03/09 02:22:19;;;;;;;;;;;-1.00;82.60;;;;;;5065070;28;19909;-74
2022/03/09 02:24:45;;;;;;;;;;;-1.00;82.60;;;;;;5047403;28;19944;-74
2022/03/09 02:27:11;;;;;;;;;;;-1.10;83.30;;;;;;5047489;28;19913;-74
2022/03/09 02:29:37;;;;;;;;;;;-1.20;83.40;;;;;;5065203;28;19932;-73
2022/03/09 02:32:03;;;;;;;;;;;-1.20;83.70;;;;;;5030653;28;19963;-73
2022/03/09 02:34:29;;;;;;;;;;;-1.30;83.60;;;;;;5027137;28;20116;-73
2022/03/09 02:36:54;;;;;;;;;;;-1.30;83.90;;;;;;5053096;22;19909;-70
2022/03/09 02:39:20;;;;;;;;;;;-1.30;84.00;;;;;;5104095;28;20199;-71
2022/03/09 02:41:46;;;;;;;;;;;-1.40;84.20;;;;;;5103849;28;19994;-70
2022/03/09 02:44:12;;;;;;;;;;;-1.50;84.30;;;;;;5104069;28;20226;-70
2022/03/09 02:46:37;;;;;;;;;;;-1.50;84.50;;;;;;5099315;28;19985;-72
2022/03/09 02:49:03;;;;;;;;;;;-1.50;84.50;;;;;;5112335;28;19914;-72
2022/03/09 02:51:29;;;;;;;;;;;-1.50;84.50;;;;;;5103667;28;20136;-71
2022/03/09 02:53:55;;;;;;;;;;;-1.50;84.70;;;;;;5103599;28;19966;-71
2022/03/09 02:56:20;;;;;;;;;;;-1.60;84.60;;;;;;5104029;28;19908;-71
2022/03/09 02:58:46;;;;;;;;;;;-1.60;84.70;;;;;;5103789;28;20183;-72
2022/03/09 03:01:13;;;;;;;;;;;-1.60;84.60;;;;;;5102394;28;19984;-71
2022/03/09 03:03:43;;;;;;;;;;;-1.60;84.80;;;;;;5102336;28;19930;-72
2022/03/09 03:06:09;;;;;;;;;;;-1.70;85.20;;;;;;5102437;28;20166;-72
2022/03/09 03:08:35;;;;;;;;;;;-1.70;85.30;;;;;;5089093;28;19949;-72
2022/03/09 03:11:00;;;;;;;;;;;-1.70;85.00;;;;;;5083066;28;20126;-71
2022/03/09 03:13:27;;;;;;;;;;;-1.80;85.30;;;;;;5087457;28;19946;-71
2022/03/09 03:15:53;;;;;;;;;;;-1.80;85.40;;;;;;5105605;28;19915;-72
2022/03/09 03:18:19;;;;;;;;;;;-1.80;85.70;;;;;;5123683;28;19935;-72
2022/03/09 03:20:45;;;;;;;;;;;-1.80;85.90;;;;;;5122657;27;20106;-71
2022/03/09 03:23:10;;;;;;;;;;;-1.80;86.40;;;;;;5123610;28;19907;-72
2022/03/09 03:25:36;;;;;;;;;;;-1.80;86.40;;;;;;5118766;28;19983;-72
2022/03/09 03:28:02;;;;;;;;;;;-1.80;86.80;;;;;;5102658;28;19916;-71
2022/03/09 03:30:27;;;;;;;;;;;-1.80;86.70;;;;;;5103061;28;19916;-72
2022/03/09 03:32:53;;;;;;;;;;;-1.70;87.10;;;;;;5102845;28;20118;-72
2022/03/09 03:35:19;;;;;;;;;;;-1.70;86.90;;;;;;5103050;28;19920;-72
2022/03/09 03:37:44;;;;;;;;;;;-1.70;87.00;;;;;;5095304;28;20211;-71
2022/03/09 03:40:10;;;;;;;;;;;-1.80;86.90;;;;;;5082840;28;20139;-70
2022/03/09 03:42:36;;;;;;;;;;;-1.70;86.60;;;;;;5082400;28;20306;-70
2022/03/09 03:45:02;;;;;;;;;;;-1.80;86.80;;;;;;5082648;28;19917;-70
2022/03/09 03:47:28;;;;;;;;;;;-1.80;87.30;;;;;;5064616;28;19982;-70
2022/03/09 03:49:53;;;;;;;;;;;-1.80;87.40;;;;;;5082616;28;19931;-70
2022/03/09 03:52:19;;;;;;;;;;;-1.80;87.20;;;;;;5082021;28;19908;-71
2022/03/09 03:54:45;;;;;;;;;;;-1.80;87.40;;;;;;5082439;28;19974;-71
2022/03/09 03:57:10;;;;;;;;;;;-1.90;87.70;;;;;;5082415;28;19939;-70
2022/03/09 03:59:36;;;;;;;;;;;-1.90;88.00;;;;;;5082401;28;20211;-70
2022/03/09 04:02:02;;;;;;;;;;;-1.80;88.00;;;;;;5082092;28;19912;-71
2022/03/09 04:04:27;;;;;;;;;;;-1.90;87.80;;;;;;5082400;28;19920;-71
2022/03/09 04:06:53;;;;;;;;;;;-1.90;88.20;;;;;;5082275;28;19975;-72
2022/03/09 04:09:19;;;;;;;;;;;-1.90;87.90;;;;;;5081988;28;19983;-71
2022/03/09 04:11:44;;;;;;;;;;;-1.90;88.10;;;;;;5081928;28;19908;-72
2022/03/09 04:14:10;;;;;;;;;;;-2.00;88.70;;;;;;5082152;28;19920;-71
2022/03/09 04:16:36;;;;;;;;;;;-2.10;89.10;;;;;;5082027;28;19909;-71
2022/03/09 04:19:02;;;;;;;;;;;-2.10;89.20;;;;;;5081919;28;19916;-71
2022/03/09 04:21:28;;;;;;;;;;;-2.00;88.90;;;;;;5080941;28;19917;-71
2022/03/09 04:23:53;;;;;;;;;;;-2.10;89.30;;;;;;5082125;28;20162;-71
2022/03/09 04:26:19;;;;;;;;;;;-2.10;89.30;;;;;;5081908;28;19909;-71
2022/03/09 04:28:45;;;;;;;;;;;-2.10;89.60;;;;;;5063972;28;19939;-72
2022/03/09 04:31:11;;;;;;;;;;;-2.20;90.00;;;;;;5081543;28;19909;-71
2022/03/09 04:33:36;;;;;;;;;;;-2.20;89.70;;;;;;5081722;28;19916;-71
2022/03/09 04:36:03;;;;;;;;;;;-2.20;90.10;;;;;;5081103;28;19917;-71
2022/03/09 04:38:29;;;;;;;;;;;-2.30;90.10;;;;;;5064026;28;19919;-71
2022/03/09 04:40:54;;;;;;;;;;;-2.30;90.30;;;;;;5081504;28;20296;-71
2022/03/09 04:43:20;;;;;;;;;;;-2.30;90.30;;;;;;5081760;28;19915;-71
2022/03/09 04:45:46;;;;;;;;;;;-2.30;90.30;;;;;;5081780;28;20167;-71
2022/03/09 04:48:12;;;;;;;;;;;-2.30;90.20;;;;;;5081689;28;20054;-71
2022/03/09 04:50:37;;;;;;;;;;;-2.30;90.30;;;;;;5081119;28;19921;-71
2022/03/09 04:53:03;;;;;;;;;;;-2.30;90.40;;;;;;5081669;28;20164;-71
2022/03/09 04:55:29;;;;;;;;;;;-2.30;90.50;;;;;;5081631;28;19974;-71
2022/03/09 04:57:54;;;;;;;;;;;-2.30;90.40;;;;;;5063621;28;19975;-71
2022/03/09 05:00:20;;;;;;;;;;;-2.30;90.50;;;;;;5081458;28;19908;-72
2022/03/09 05:02:46;;;;;;;;;;;-2.30;90.50;;;;;;5081213;28;20211;-71
2022/03/09 05:05:12;;;;;;;;;;;-2.30;90.60;;;;;;5081160;28;19908;-72
2022/03/09 05:07:41;;;;;;;;;;;-2.30;90.30;;;;;;5081340;28;19916;-71
2022/03/09 05:10:08;;;;;;;;;;;-2.20;90.40;;;;;;5081437;28;19909;-70
2022/03/09 05:12:34;;;;;;;;;;;-2.20;90.30;;;;;;5046716;28;19908;-70
2022/03/09 05:15:00;;;;;;;;;;;-2.30;90.30;;;;;;5081417;28;19921;-72
2022/03/09 05:17:25;;;;;;;;;;;-2.40;90.50;;;;;;5082005;28;19943;-72
2022/03/09 05:19:51;;;;;;;;;;;-2.40;90.70;;;;;;5084023;28;19958;-71
2022/03/09 05:22:17;;;;;;;;;;;-2.40;90.70;;;;;;5079907;28;20240;-72
2022/03/09 05:24:42;;;;;;;;;;;-2.40;90.90;;;;;;5081309;28;19951;-72
2022/03/09 05:27:08;;;;;;;;;;;-2.50;91.00;;;;;;5063304;28;19909;-72
2022/03/09 05:29:34;;;;;;;;;;;-2.50;91.10;;;;;;5063375;28;20038;-71
2022/03/09 05:32:00;;;;;;;;;;;-2.50;91.10;;;;;;5080757;28;20354;-72
2022/03/09 05:34:25;;;;;;;;;;;-2.40;91.00;;;;;;5063114;28;19912;-72
2022/03/09 05:36:51;;;;;;;;;;;-2.50;90.80;;;;;;5080644;28;19979;-71
2022/03/09 05:39:17;;;;;;;;;;;-2.50;90.70;;;;;;5081090;28;19916;-72
2022/03/09 05:41:42;;;;;;;;;;;-2.50;90.70;;;;;;5080655;28;19989;-71
2022/03/09 05:44:08;;;;;;;;;;;-2.60;91.00;;;;;;5078364;28;19912;-71
2022/03/09 05:46:34;;;;;;;;;;;-2.60;90.80;;;;;;5105036;28;19916;-71
2022/03/09 05:48:59;;;;;;;;;;;-2.60;90.80;;;;;;5104917;28;19912;-70
2022/03/09 05:51:25;;;;;;;;;;;-2.60;91.00;;;;;;5098908;28;19943;-68
2022/03/09 05:53:51;;;;;;;;;;;-2.60;91.10;;;;;;5106043;28;19950;-68
2022/03/09 05:56:16;;;;;;;;;;;-2.60;91.00;;;;;;5116859;28;19930;-68
2022/03/09 05:58:42;;;;;;;;;;;-2.50;91.20;;;;;;5124868;28;19915;-68
2022/03/09 06:01:08;;;;;;;;;;;-2.50;91.10;;;;;;5124889;28;19953;-67
2022/03/09 06:03:34;;;;;;;;;;;-2.50;91.20;;;;;;5125216;28;19970;-68
2022/03/09 06:05:59;;;;;;;;;;;-2.60;91.30;;;;;;5125010;28;19941;-68
2022/03/09 06:08:25;;;;;;;;;;;-2.50;91.30;;;;;;5125199;28;19919;-69
2022/03/09 06:10:51;;;;;;;;;;;-2.50;91.50;;;;;;5125457;28;19908;-68
2022/03/09 06:13:17;;;;;;;;;;;-2.40;91.30;;;;;;5106808;28;20044;-68
2022/03/09 06:15:44;;;;;;;;;;;-2.40;91.30;;;;;;5124814;28;19983;-69
2022/03/09 06:18:10;;;;;;;;;;;-2.40;91.30;;;;;;5125484;28;19952;-69
2022/03/09 06:20:36;;;;;;;;;;;-2.40;91.50;;;;;;5108965;28;19923;-69
2022/03/09 06:23:02;;;;;;;;;;;-2.30;91.60;;;;;;5084236;28;19926;-69
2022/03/09 06:25:27;;;;;;;;;;;-2.30;91.40;;;;;;5084115;28;19916;-69
2022/03/09 06:27:53;;;;;;;;;;;-2.30;91.30;;;;;;5084086;28;19909;-69
2022/03/09 06:30:19;;;;;;;;;;;-2.40;91.50;;;;;;5084315;28;19908;-69
2022/03/09 06:32:45;;;;;;;;;;;-2.20;91.60;;;;;;5083637;28;19954;-69
2022/03/09 06:35:11;;;;;;;;;;;-2.20;91.50;;;;;;5065457;28;19955;-69
2022/03/09 06:37:37;;;;;;;;;;;-2.10;91.50;;;;;;5049125;28;19920;-69
2022/03/09 06:40:04;;;;;;;;;;;-1.90;91.30;;;;;;5083734;28;20107;-69
2022/03/09 06:42:29;;;;;;;;;;;-1.80;90.90;;;;;;5083374;28;20360;-69
2022/03/09 06:44:56;;;;;;;;;;;-1.60;90.50;;;;;;5083239;28;19916;-69
2022/03/09 06:47:21;;;;;;;;;;;-1.50;90.30;;;;;;5065681;28;20225;-69
2022/03/09 06:49:47;;;;;;;;;;;-1.30;90.10;;;;;;5083522;28;19920;-69
2022/03/09 06:52:13;;;;;;;;;;;-1.30;90.00;;;;;;5083068;28;19908;-69
2022/03/09 06:54:38;;;;;;;;;;;-1.30;90.00;;;;;;5064237;28;19920;-69
2022/03/09 06:57:04;;;;;;;;;;;-1.20;89.40;;;;;;5083137;28;19932;-69
2022/03/09 06:59:30;;;;;;;;;;;-1.20;89.00;;;;;;5083223;28;19908;-69
2022/03/09 07:01:56;;;;;;;;;;;-1.20;88.60;;;;;;5082996;28;19908;-69
2022/03/09 07:04:22;;;;;;;;;;;-1.20;88.20;;;;;;5065368;28;19915;-69
2022/03/09 07:06:47;;;;;;;;;;;-1.10;88.10;;;;;;5082903;28;19920;-69
2022/03/09 07:09:14;;;;;;;;;;;-1.10;88.00;;;;;;5065285;28;19908;-69
2022/03/09 07:11:41;;;;;;;;;;;-1.00;87.40;;;;;;5082904;28;19909;-69
2022/03/09 07:14:07;;;;;;;;;;;-0.90;86.70;;;;;;5082729;28;20277;-69
2022/03/09 07:16:33;;;;;;;;;;;-0.90;86.90;;;;;;5082968;28;19917;-69
2022/03/09 07:18:58;;;;;;;;;;;-0.90;86.80;;;;;;5082980;28;20108;-74
2022/03/09 07:21:24;;;;;;;;;;;-0.80;86.70;;;;;;5068605;28;19919;-74
2022/03/09 07:23:50;;;;;;;;;;;-0.80;86.10;;;;;;5084045;28;19915;-74
2022/03/09 07:26:15;;;;;;;;;;;-0.70;85.30;;;;;;5085125;28;19999;-74
2022/03/09 07:28:41;;;;;;;;;;;-0.70;85.60;;;;;;5084853;28;19915;-71
2022/03/09 07:31:07;;;;;;;;;;;-0.60;85.60;;;;;;5084496;28;20234;-72
2022/03/09 07:33:32;;;;;;;;;;;-0.60;85.20;;;;;;5103163;28;19985;-69
2022/03/09 07:36:00;;;;;;;;;;;-0.50;85.00;;;;;;5102705;28;20072;-69
2022/03/09 07:38:26;;;;;;;;;;;-0.40;84.80;;;;;;5085084;28;20222;-69
2022/03/09 07:40:52;;;;;;;;;;;-0.30;84.00;;;;;;5102812;28;19923;-69
2022/03/09 07:43:18;;;;;;;;;;;-0.30;84.00;;;;;;5084283;28;19950;-70
2022/03/09 07:45:43;;;;;;;;;;;-0.20;83.60;;;;;;5102961;28;19923;-69
2022/03/09 07:48:09;;;;;;;;;;;-0.10;83.00;;;;;;5102636;28;19908;-67
2022/03/09 07:50:36;;;;;;;;;;;-0.10;82.80;;;;;;5071835;28;19909;-69
2022/03/09 07:53:03;;;;;;;;;;;0.00;82.40;;;;;;5082311;28;19916;-68
2022/03/09 07:55:29;;;;;;;;;;;0.10;81.60;;;;;;5064488;28;20179;-68
2022/03/09 07:57:54;;;;;;;;;;;0.20;80.70;;;;;;5082217;28;20003;-68
2022/03/09 08:00:20;;;;;;;;;;;0.30;80.90;;;;;;5081986;28;19969;-68
2022/03/09 08:02:46;;;;;;;;;;;0.30;80.70;;;;;;5081976;28;19909;-68
2022/03/09 08:05:12;;;;;;;;;;;0.40;81.00;;;;;;5082213;28;20007;-68
2022/03/09 08:07:37;;;;;;;;;;;0.50;79.90;;;;;;5081697;28;19923;-68
2022/03/09 08:10:04;;;;;;;;;;;0.60;79.30;;;;;;5082120;28;19939;-68
2022/03/09 08:12:30;;;;;;;;;;;0.70;78.70;;;;;;5081747;28;19909;-68
2022/03/09 08:14:56;;;;;;;;;;;0.70;78.50;;;;;;5081868;28;19923;-68
2022/03/09 08:17:22;;;;;;;;;;;0.90;78.20;;;;;;5081893;28;19947;-68
2022/03/09 08:19:48;;;;;;;;;;;1.00;77.70;;;;;;5080866;28;19991;-68
2022/03/09 08:22:13;;;;;;;;;;;1.10;77.50;;;;;;5063283;28;19908;-68
2022/03/09 08:24:39;;;;;;;;;;;1.20;77.00;;;;;;5081731;28;19912;-67
2022/03/09 08:27:05;;;;;;;;;;;1.20;76.80;;;;;;5081427;28;19975;-68
2022/03/09 08:29:30;;;;;;;;;;;1.30;76.40;;;;;;5081649;28;19920;-68
2022/03/09 08:31:56;;;;;;;;;;;1.50;76.20;;;;;;5081200;28;20123;-68
2022/03/09 08:34:22;;;;;;;;;;;1.60;75.80;;;;;;5081648;28;19937;-68
2022/03/09 08:36:47;;;;;;;;;;;1.70;75.60;;;;;;5081278;28;19916;-68
2022/03/09 08:39:13;;;;;;;;;;;1.80;74.90;;;;;;5081496;28;19993;-68
2022/03/09 08:41:39;;;;;;;;;;;1.90;74.90;;;;;;5081076;28;20111;-68
2022/03/09 08:44:05;;;;;;;;;;;2.00;75.70;;;;;;5081495;28;20006;-67
2022/03/09 08:46:30;;;;;;;;;;;2.10;74.30;;;;;;5081640;28;19908;-68
2022/03/09 08:48:57;;;;;;;;;;;2.10;73.60;;;;;;5081410;28;20103;-68
2022/03/09 08:51:23;;;;;;;;;;;2.20;74.40;;;;;;5080139;28;19916;-68
2022/03/09 08:53:49;;;;;;;;;;;2.40;75.50;;;;;;5081379;28;20208;-68
2022/03/09 08:56:14;;;;;;;;;;;2.50;76.50;;;;;;5063148;28;19916;-68
2022/03/09 08:58:40;;;;;;;;;;;2.60;75.00;;;;;;5063550;28;19909;-68
2022/03/09 09:01:06;;;;;;;;;;;2.70;75.10;;;;;;5081009;28;19954;-68
2022/03/09 09:03:32;;;;;;;;;;;2.80;74.90;;;;;;5081368;28;19921;-68
2022/03/09 09:05:57;;;;;;;;;;;2.90;73.40;;;;;;5080947;28;20207;-68
2022/03/09 09:08:23;;;;;;;;;;;3.00;73.50;;;;;;5081079;28;19908;-68
2022/03/09 09:10:49;;;;;;;;;;;3.10;73.60;;;;;;5080806;28;19908;-68
2022/03/09 09:13:14;;;;;;;;;;;3.30;71.60;;;;;;5081338;28;20376;-69
2022/03/09 09:15:40;;;;;;;;;;;3.40;72.00;;;;;;5081180;28;19936;-68
2022/03/09 09:18:09;;;;;;;;;;;3.50;72.30;;;;;;5047864;28;19915;-69
2022/03/09 09:20:35;;;;;;;;;;;3.60;69.80;;;;;;5073649;28;19916;-69
2022/03/09 09:23:01;;;;;;;;;;;3.90;66.30;;;;;;5105566;28;19972;-68
2022/03/09 09:25:26;;;;;;;;;;;4.10;64.40;;;;;;5087326;28;19908;-68
2022/03/09 09:27:53;;;;;;;;;;;4.30;63.00;;;;;;5087332;28;19916;-68
2022/03/09 09:30:19;;;;;;;;;;;4.50;60.30;;;;;;5087301;28;19979;-68
2022/03/09 09:32:45;;;;;;;;;;;4.70;58.90;;;;;;5105157;28;19915;-68
2022/03/09 09:35:11;;;;;;;;;;;4.80;57.70;;;;;;5089849;28;19912;-69
2022/03/09 09:37:38;;;;;;;;;;;4.90;57.80;;;;;;5084581;28;19928;-68
2022/03/09 09:40:04;;;;;;;;;;;5.00;57.10;;;;;;5084927;28;19913;-68
2022/03/09 09:42:31;;;;;;;;;;;5.00;56.50;;;;;;5066800;28;19920;-68
2022/03/09 09:44:57;;;;;;;;;;;5.20;55.90;;;;;;5067284;28;19913;-69
2022/03/09 09:47:24;;;;;;;;;;;5.20;56.20;;;;;;5084979;28;19915;-69
2022/03/09 09:49:52;;;;;;;;;;;5.40;55.00;;;;;;5067181;28;19927;-69
2022/03/09 09:52:21;;;;;;;;;;;5.50;54.40;;;;;;5066225;28;19923;-68
2022/03/09 09:54:50;;;;;;;;;;;5.60;54.20;;;;;;5084775;28;19947;-69
2022/03/09 09:57:16;;;;;;;;;;;5.60;54.00;;;;;;5066983;28;19908;-69
2022/03/09 09:59:43;;;;;;;;;;;5.70;52.50;;;;;;5050302;28;20151;-68
2022/03/09 10:02:09;;;;;;;;;;;5.90;52.60;;;;;;5066856;28;19916;-69
2022/03/09 10:04:37;;;;;;;;;;;6.00;50.70;;;;;;5066701;28;19908;-68
2022/03/09 10:07:03;;;;;;;;;;;6.10;51.60;;;;;;5066480;28;20026;-68
2022/03/09 10:09:39;;;;;;;;;;;6.20;50.90;;;;;;5084538;28;19912;-69
2022/03/09 10:12:06;;;;;;;;;;;6.50;50.20;;;;;;5050029;28;20029;-68
2022/03/09 10:14:50;;;;;;;;;;;6.70;49.00;;;;;;5084338;28;19976;-68
2022/03/09 10:17:27;;;;;;;;;;;6.90;48.00;;;;;;5088034;28;19919;-68
2022/03/09 10:19:55;;;;;;;;;;;7.10;47.70;;;;;;5095572;28;20173;-69
2022/03/09 10:22:34;;;;;;;;;;;7.30;46.70;;;;;;5104112;28;20174;-68
2022/03/09 10:25:22;;;;;;;;;;;7.40;45.00;;;;;;5104775;28;20176;-69
2022/03/09 10:27:55;;;;;;;;;;;7.60;45.30;;;;;;5104355;28;19915;-69
2022/03/09 10:30:40;;;;;;;;;;;7.80;45.60;;;;;;5104253;28;19908;-69
2022/03/09 10:33:08;;;;;;;;;;;7.90;46.20;;;;;;5104407;28;20029;-69
2022/03/09 10:35:33;;;;;;;;;;;8.10;44.50;;;;;;5086088;28;19985;-69
2022/03/09 10:38:14;;;;;;;;;;;8.40;43.10;;;;;;5104073;28;20051;-69
2022/03/09 10:40:42;;;;;;;;;;;8.70;41.50;;;;;;5104042;28;19912;-69
2022/03/09 10:43:18;;;;;;;;;;;8.90;42.30;;;;;;5104091;28;19916;-69
2022/03/09 10:46:02;;;;;;;;;;;9.10;41.40;;;;;;5104041;28;20199;-69
2022/03/09 10:48:52;;;;;;;;;;;9.40;40.90;;;;;;5103971;28;19916;-69
2022/03/09 10:51:39;;;;;;;;;;;9.60;40.60;;;;;;5090012;28;19935;-67
2022/03/09 10:54:24;;;;;;;;;;;9.90;39.40;;;;;;5083598;28;19919;-68
2022/03/09 10:56:50;;;;;;;;;;;10.10;40.00;;;;;;5080045;28;19916;-68
2022/03/09 10:59:19;;;;;;;;;;;10.30;37.80;;;;;;5103766;28;19975;-68
2022/03/09 11:02:01;;;;;;;;;;;10.50;37.20;;;;;;5103530;28;19914;-68
2022/03/09 11:04:27;;;;;;;;;;;10.70;38.30;;;;;;5103741;28;19916;-68
2022/03/09 11:06:55;;;;;;;;;;;11.00;36.20;;;;;;5085242;28;19945;-68
2022/03/09 11:09:20;;;;;;;;;;;11.10;37.60;;;;;;5069374;28;20159;-68
2022/03/09 11:11:48;;;;;;;;;;;11.40;35.90;;;;;;5103285;28;19908;-68
2022/03/09 11:14:14;;;;;;;;;;;11.80;35.50;;;;;;5103439;28;19965;-68
2022/03/09 11:16:41;;;;;;;;;;;12.00;36.40;;;;;;5103320;28;19908;-68
2022/03/09 11:19:07;;;;;;;;;;;12.40;35.70;;;;;;5103400;28;19915;-68
2022/03/09 11:21:34;;;;;;;;;;;12.70;33.70;;;;;;5086729;28;19915;-68
2022/03/09 11:24:00;;;;;;;;;;;13.10;35.00;;;;;;5065168;28;19908;-69
2022/03/09 11:26:27;;;;;;;;;;;13.50;33.40;;;;;;5065164;28;20006;-69
2022/03/09 11:29:01;;;;;;;;;;;14.00;33.00;;;;;;5065144;28;19909;-69
2022/03/09 11:31:47;;;;;;;;;;;14.50;31.80;;;;;;5064720;28;19908;-68
2022/03/09 11:34:37;;;;;;;;;;;15.10;30.50;;;;;;5082832;28;20217;-69
2022/03/09 11:37:10;;;;;;;;;;;16.20;30.40;;;;;;5082400;28;19920;-68
2022/03/09 11:39:37;;;;;;;;;;;18.30;28.40;;;;;;5082873;28;19909;-68
2022/03/09 11:42:21;;;;;;;;;;;19.90;26.40;;;;;;5081786;28;20241;-69
2022/03/09 11:44:47;;;;;;;;;;;21.60;24.90;;;;;;5082640;28;19909;-69
2022/03/09 11:47:13;;;;;;;;;;;23.40;24.30;;;;;;5082510;28;20822;-70
2022/03/09 11:49:42;;;;;;;;;;;24.70;24.00;;;;;;5082751;28;19916;-77
2022/03/09 11:52:21;;;;;;;;;;;25.70;22.30;;;;;;5082171;28;19984;-77
2022/03/09 11:54:48;;;;;;;;;;;26.50;21.80;;;;;;5064908;28;20259;-77
2022/03/09 11:57:17;;;;;;;;;;;27.60;20.80;;;;;;5047838;28;19950;-77
2022/03/09 12:00:14;;;;;;;;;;;27.40;21.20;;;;;;5064796;28;19916;-77
2022/03/09 12:02:56;;;;;;;;;;;27.40;20.80;;;;;;5047465;28;19985;-77
2022/03/09 12:05:28;;;;;;;;;;;28.50;20.60;;;;;;5051001;28;20207;-77
2022/03/09 12:08:04;;;;;;;;;;;29.10;19.90;;;;;;5081896;28;19939;-77
2022/03/09 12:10:40;;;;;;;;;;;29.30;20.20;;;;;;5064133;28;19914;-77
2022/03/09 12:13:27;;;;;;;;;;;29.60;20.30;;;;;;5082243;28;19916;-77
2022/03/09 12:16:18;;;;;;;;;;;30.60;19.70;;;;;;5082194;28;19920;-76
2022/03/09 12:18:50;;;;;;;;;;;31.40;19.40;;;;;;5064241;28;20107;-77
2022/03/09 12:21:40;;;;;;;;;;;32.10;19.20;;;;;;5081402;28;19983;-78
2022/03/09 12:24:06;;;;;;;;;;;31.80;18.70;;;;;;5052545;28;19954;-76
2022/03/09 12:26:44;;;;;;;;;;;32.60;18.60;;;;;;5082679;28;19908;-78
2022/03/09 12:29:28;;;;;;;;;;;32.70;18.60;;;;;;5049476;28;19951;-77
2022/03/09 12:32:05;;;;;;;;;;;32.70;19.00;;;;;;5081710;28;19909;-70
2022/03/09 12:34:36;;;;;;;;;;;33.40;18.30;;;;;;5081571;28;19920;-69
2022/03/09 12:37:08;;;;;;;;;;;34.10;18.20;;;;;;5081268;28;19913;-78
2022/03/09 12:39:34;;;;;;;;;;;33.40;18.30;;;;;;5081632;28;19958;-72
2022/03/09 12:42:00;;;;;;;;;;;32.90;18.00;;;;;;5063749;28;20258;-72
2022/03/09 12:44:28;;;;;;;;;;;33.90;18.00;;;;;;5047366;28;20005;-72
2022/03/09 12:46:54;;;;;;;;;;;33.30;18.00;;;;;;5045490;28;19916;-71
2022/03/09 12:49:54;;;;;;;;;;;33.90;18.10;;;;;;5088975;28;19908;-69
2022/03/09 12:52:21;;;;;;;;;;;34.10;18.00;;;;;;5039970;28;19908;-70
2022/03/09 12:54:54;;;;;;;;;;;35.50;17.60;;;;;;5084848;28;19922;-66
2022/03/09 12:57:28;;;;;;;;;;;34.60;17.70;;;;;;5095870;28;19983;-68
2022/03/09 13:00:10;;;;;;;;;;;33.20;18.40;;;;;;5084660;28;19909;-70
2022/03/09 13:02:43;;;;;;;;;;;33.60;18.00;;;;;;5084827;28;19954;-72
2022/03/09 13:05:09;;;;;;;;;;;34.20;17.80;;;;;;5085646;28;19908;-72
2022/03/09 13:07:35;;;;;;;;;;;36.00;17.40;;;;;;5067673;28;20209;-73
2022/03/09 13:10:11;;;;;;;;;;;34.50;17.70;;;;;;5067796;28;19915;-71
2022/03/09 13:12:54;;;;;;;;;;;35.00;17.40;;;;;;5102066;28;20169;-72
2022/03/09 13:15:19;;;;;;;;;;;34.70;17.40;;;;;;5102535;28;19998;-71
2022/03/09 13:17:46;;;;;;;;;;;35.00;17.70;;;;;;5100515;28;19916;-72
2022/03/09 13:20:13;;;;;;;;;;;34.00;17.40;;;;;;5084387;28;19912;-72
2022/03/09 13:22:46;;;;;;;;;;;33.50;17.60;;;;;;5051509;28;19908;-71
2022/03/09 13:25:11;;;;;;;;;;;33.10;17.90;;;;;;5064267;28;19948;-71
2022/03/09 13:27:37;;;;;;;;;;;35.50;17.70;;;;;;5064345;28;19916;-71
2022/03/09 13:30:13;;;;;;;;;;;34.10;17.40;;;;;;5082107;28;19919;-71
2022/03/09 13:32:38;;;;;;;;;;;33.60;17.80;;;;;;5081726;28;19909;-70
2022/03/09 13:35:04;;;;;;;;;;;33.40;17.70;;;;;;5081564;28;19984;-69
2022/03/09 13:37:39;;;;;;;;;;;32.90;17.50;;;;;;5080729;28;19917;-69
2022/03/09 13:40:07;;;;;;;;;;;32.80;17.80;;;;;;5081702;28;20123;-68
2022/03/09 13:42:39;;;;;;;;;;;33.70;17.70;;;;;;5081144;28;19995;-72
2022/03/09 13:45:11;;;;;;;;;;;34.00;17.50;;;;;;5064148;28;19909;-72
2022/03/09 13:47:57;;;;;;;;;;;33.30;18.00;;;;;;5080632;28;19916;-72
2022/03/09 13:50:29;;;;;;;;;;;33.40;17.90;;;;;;5062389;28;19923;-72
2022/03/09 13:53:18;;;;;;;;;;;33.50;17.80;;;;;;5079863;28;20081;-72
2022/03/09 13:55:51;;;;;;;;;;;33.80;17.70;;;;;;5080218;28;19919;-70
2022/03/09 13:58:24;;;;;;;;;;;34.20;17.90;;;;;;5080235;28;20253;-70
2022/03/09 14:00:50;;;;;;;;;;;33.20;17.50;;;;;;5079977;28;19936;-72
2022/03/09 14:03:21;;;;;;;;;;;33.20;17.50;;;;;;5045680;28;20205;-71
2022/03/09 14:05:49;;;;;;;;;;;33.00;17.30;;;;;;5084541;28;19954;-71
2022/03/09 14:08:30;;;;;;;;;;;33.60;17.80;;;;;;5084219;28;19909;-71
2022/03/09 14:11:18;;;;;;;;;;;36.20;17.10;;;;;;5084447;28;20011;-68
2022/03/09 14:14:18;;;;;;;;;;;36.20;17.00;;;;;;5083756;28;19991;-69
2022/03/09 14:16:46;;;;;;;;;;;33.50;17.40;;;;;;5083833;28;19908;-70
2022/03/09 14:19:13;;;;;;;;;;;33.00;17.40;;;;;;5083333;28;20130;-71
2022/03/09 14:21:40;;;;;;;;;;;31.90;17.70;;;;;;5102418;28;20563;-69
2022/03/09 14:24:06;;;;;;;;;;;31.90;17.90;;;;;;5084773;28;20137;-70
2022/03/09 14:26:33;;;;;;;;;;;30.60;17.80;;;;;;5084463;28;19908;-70
2022/03/09 14:28:59;;;;;;;;;;;31.50;17.90;;;;;;5084573;28;19954;-68